Time;durP1;ratioP1;P1;durP2;ratioP2;P2;SDS_P1;SDS_P2;PMS_P1;PMS_P2;Temp;Humidity;BMP_temperature;BMP_pressure;BME280_temperature;BME280_humidity;BME280_pressure;Samples;Min_cycle;Max_cycle;Signal;HPM_P1;HPM_P2
2022/05/10 00:01:07;;;;;;;0.00;0.00;;;19.10;99.90;;;;;;5054704;28;20021;-70
2022/05/10 00:03:40;;;;;;;0.00;0.00;;;19.10;99.90;;;;;;5054591;28;20029;-70
2022/05/10 00:06:07;;;;;;;0.00;0.00;;;19.20;99.90;;;;;;5054703;28;20106;-69
2022/05/10 00:08:33;;;;;;;0.00;0.00;;;19.20;99.90;;;;;;5052581;28;20030;-69
2022/05/10 00:10:59;;;;;;;0.00;0.00;;;19.20;99.90;;;;;;5054368;28;20068;-69
2022/05/10 00:13:26;;;;;;;0.00;0.00;;;19.40;99.90;;;;;;5053266;28;20051;-69
2022/05/10 00:15:52;;;;;;;0.00;0.00;;;19.40;99.90;;;;;;5053235;28;20025;-70
2022/05/10 00:18:28;;;;;;;0.00;0.00;;;19.50;99.90;;;;;;5054618;28;20025;-71
2022/05/10 00:20:54;;;;;;;0.00;0.00;;;19.80;99.90;;;;;;5054486;28;20074;-70
2022/05/10 00:23:20;;;;;;;0.00;0.00;;;19.90;99.90;;;;;;5054795;28;20094;-70
2022/05/10 00:25:46;;;;;;;0.00;0.00;;;20.00;99.90;;;;;;5052969;28;20492;-70
2022/05/10 00:28:12;;;;;;;0.00;0.00;;;19.90;99.90;;;;;;5052657;28;20059;-70
2022/05/10 00:30:39;;;;;;;0.00;0.00;;;20.20;99.90;;;;;;5052475;28;20519;-70
2022/05/10 00:33:05;;;;;;;0.00;0.00;;;20.00;99.90;;;;;;5052809;28;20025;-70
2022/05/10 00:35:34;;;;;;;0.00;0.00;;;20.00;99.90;;;;;;5053652;28;20354;-70
2022/05/10 00:38:04;;;;;;;0.00;0.00;;;20.30;99.90;;;;;;5052431;28;20103;-70
2022/05/10 00:40:33;;;;;;;0.00;0.00;;;20.30;99.90;;;;;;5052367;28;20017;-71
2022/05/10 00:43:18;;;;;;;0.00;0.00;;;19.80;99.90;;;;;;5052365;28;20432;-69
2022/05/10 00:46:10;;;;;;;0.00;0.00;;;20.00;99.90;;;;;;5053397;28;20358;-70
2022/05/10 00:48:50;;;;;;;0.00;0.00;;;20.20;99.90;;;;;;5052141;28;20492;-71
2022/05/10 00:51:27;;;;;;;0.00;0.00;;;20.50;99.90;;;;;;5052250;28;20029;-69
2022/05/10 00:54:00;;;;;;;0.00;0.00;;;21.00;99.90;;;;;;5051819;28;20021;-70
2022/05/10 00:56:48;;;;;;;0.00;0.00;;;21.70;99.90;;;;;;5044965;28;20037;-70
2022/05/10 00:59:17;;;;;;;0.00;0.00;;;22.30;99.90;;;;;;5051864;28;20021;-70
2022/05/10 01:01:48;;;;;;;0.00;0.00;;;22.70;99.90;;;;;;5051886;28;20108;-70
2022/05/10 01:04:29;;;;;;;0.15;0.15;;;23.30;99.90;;;;;;5053123;28;20024;-72
2022/05/10 01:07:02;;;;;;;0.00;0.00;;;23.90;99.90;;;;;;5051984;28;20112;-70
2022/05/10 01:10:04;;;;;;;0.00;0.00;;;24.00;99.90;;;;;;5049517;28;20027;-70
2022/05/10 01:12:44;;;;;;;0.00;0.00;;;24.10;99.90;;;;;;5051047;28;20013;-70
2022/05/10 01:15:23;;;;;;;0.00;0.00;;;24.60;99.90;;;;;;5050954;28;20104;-71
2022/05/10 01:17:57;;;;;;;0.00;0.00;;;24.80;98.40;;;;;;5053056;28;20040;-69
2022/05/10 01:20:35;;;;;;;0.65;0.65;;;25.00;93.30;;;;;;5049376;28;20100;-71
2022/05/10 01:23:38;;;;;;;1.30;1.23;;;25.00;89.40;;;;;;5051091;28;20033;-68
2022/05/10 01:26:30;;;;;;;1.35;1.23;;;24.20;91.20;;;;;;5050375;28;20025;-68
2022/05/10 01:29:10;;;;;;;0.52;0.47;;;23.60;95.40;;;;;;5051890;28;20120;-68
2022/05/10 01:31:44;;;;;;;0.88;0.40;;;23.30;99.90;;;;;;5052551;28;20040;-68
2022/05/10 01:34:17;;;;;;;0.30;0.30;;;23.20;99.90;;;;;;5053045;28;20025;-68
2022/05/10 01:36:56;;;;;;;1.45;1.38;;;23.20;99.90;;;;;;5052994;28;20032;-68
2022/05/10 01:39:35;;;;;;;19.48;9.63;;;23.30;99.90;;;;;;5051063;28;20541;-68
2022/05/10 01:42:50;;;;;;;0.43;0.43;;;23.80;97.90;;;;;;5048249;28;20389;-68
2022/05/10 01:45:23;;;;;;;0.47;0.38;;;24.00;95.90;;;;;;5047528;28;20134;-68
2022/05/10 01:47:55;;;;;;;0.00;0.00;;;24.20;94.80;;;;;;5051180;28;20017;-69
2022/05/10 01:50:49;;;;;;;0.20;0.20;;;24.40;93.50;;;;;;5052550;28;20029;-69
2022/05/10 01:53:29;;;;;;;0.20;0.20;;;25.00;87.40;;;;;;5051485;28;20461;-69
2022/05/10 01:56:11;;;;;;;18.20;4.88;;;25.50;81.40;;;;;;5051911;28;20041;-68
2022/05/10 01:58:39;;;;;;;0.00;0.00;;;26.00;75.10;;;;;;5067483;28;20032;-69
2022/05/10 02:01:18;;;;;;;0.28;0.28;;;26.50;74.40;;;;;;5051243;28;20035;-68
2022/05/10 02:04:01;;;;;;;0.28;0.28;;;26.90;68.70;;;;;;5041516;28;20018;-69
2022/05/10 02:06:38;;;;;;;0.45;0.20;;;27.80;64.60;;;;;;5040505;28;20029;-68
2022/05/10 02:09:14;;;;;;;0.20;0.20;;;28.10;60.80;;;;;;5051245;28;20112;-69
2022/05/10 02:11:52;;;;;;;0.00;0.00;;;28.30;59.10;;;;;;5042483;28;20029;-68
2022/05/10 02:14:21;;;;;;;0.00;0.00;;;28.40;58.20;;;;;;5035103;28;20215;-69
2022/05/10 02:16:56;;;;;;;0.10;0.10;;;28.70;57.30;;;;;;5046289;28;20120;-69
2022/05/10 02:19:43;;;;;;;0.13;0.10;;;28.40;55.30;;;;;;5048178;28;20067;-69
2022/05/10 02:22:16;;;;;;;1.27;0.75;;;28.20;58.00;;;;;;5048168;28;20021;-68
2022/05/10 02:24:51;;;;;;;2.10;1.23;;;28.00;57.00;;;;;;5046203;28;20500;-68
2022/05/10 02:27:27;;;;;;;0.20;0.10;;;27.70;57.90;;;;;;5037817;28;20116;-68
2022/05/10 02:30:08;;;;;;;3.53;3.22;;;27.70;57.70;;;;;;5050438;28;20025;-69
2022/05/10 02:33:09;;;;;;;1.60;0.90;;;27.60;57.00;;;;;;5048054;28;20105;-69
2022/05/10 02:35:54;;;;;;;1.63;0.73;;;27.40;56.10;;;;;;5053060;28;20072;-68
2022/05/10 02:38:31;;;;;;;1.00;0.30;;;27.50;56.20;;;;;;5054110;28;20119;-69
2022/05/10 02:40:59;;;;;;;1.30;0.75;;;27.70;54.60;;;;;;5045543;28;20019;-69
2022/05/10 02:43:27;;;;;;;2.05;1.27;;;27.50;55.70;;;;;;5058017;28;20029;-69
2022/05/10 02:45:56;;;;;;;0.30;0.30;;;27.70;54.80;;;;;;5050079;28;20511;-69
2022/05/10 02:48:29;;;;;;;0.00;0.00;;;27.60;55.20;;;;;;5051476;28;20056;-69
2022/05/10 02:50:55;;;;;;;6.78;2.88;;;27.80;54.80;;;;;;5052120;28;20098;-69
2022/05/10 02:53:57;;;;;;;0.10;0.10;;;28.30;53.50;;;;;;5051427;28;20526;-70
2022/05/10 02:56:26;;;;;;;0.52;0.52;;;28.80;53.40;;;;;;5008731;28;20046;-70
2022/05/10 02:59:10;;;;;;;1.27;0.85;;;28.90;53.00;;;;;;5037889;28;20037;-70
2022/05/10 03:02:18;;;;;;;1.98;1.58;;;29.10;52.40;;;;;;5041513;28;20025;-69
2022/05/10 03:04:51;;;;;;;2.22;1.55;;;28.40;53.60;;;;;;5043059;28;20028;-70
2022/05/10 03:07:18;;;;;;;0.13;0.13;;;28.30;55.00;;;;;;5047337;28;20040;-70
2022/05/10 03:09:44;;;;;;;1.45;0.80;;;28.30;55.40;;;;;;5049969;28;20107;-73
2022/05/10 03:12:10;;;;;;;14.18;1.15;;;28.50;55.00;;;;;;5045209;28;20124;-71
2022/05/10 03:14:37;;;;;;;6.93;2.90;;;28.50;53.70;;;;;;5057537;28;20025;-71
2022/05/10 03:17:04;;;;;;;11.55;3.10;;;28.50;53.40;;;;;;5050221;28;20039;-70
2022/05/10 03:19:32;;;;;;;6.10;1.40;;;28.40;54.60;;;;;;5054316;28;20032;-71
2022/05/10 03:21:58;;;;;;;4.28;0.85;;;28.50;53.90;;;;;;5056505;28;20016;-71
2022/05/10 03:24:24;;;;;;;1.45;0.98;;;28.10;52.80;;;;;;5049647;28;20052;-71
2022/05/10 03:26:52;;;;;;;0.10;0.10;;;27.90;52.40;;;;;;5043989;28;20122;-71
2022/05/10 03:29:19;;;;;;;0.75;0.65;;;27.80;53.00;;;;;;5046583;28;20025;-70
2022/05/10 03:31:45;;;;;;;1.55;0.88;;;27.60;53.70;;;;;;5051457;28;20572;-70
2022/05/10 03:36:56;;;;;;;0.38;0.38;;;27.40;53.80;;;;;;5048853;28;20119;-70
2022/05/10 03:39:25;;;;;;;0.88;0.30;;;27.50;54.90;;;;;;5051093;28;20496;-69
2022/05/10 03:41:51;;;;;;;1.38;1.17;;;27.20;55.70;;;;;;5052318;28;20465;-69
2022/05/10 03:44:17;;;;;;;2.75;1.85;;;27.60;54.60;;;;;;5044473;28;20521;-69
2022/05/10 03:46:45;;;;;;;0.82;0.70;;;27.60;53.10;;;;;;5039440;28;20029;-69
2022/05/10 03:49:11;;;;;;;1.92;1.25;;;27.30;53.50;;;;;;5049832;28;20038;-70
2022/05/10 03:51:37;;;;;;;13.13;9.10;;;27.50;52.70;;;;;;5045252;28;20029;-70
2022/05/10 03:54:04;;;;;;;4.00;0.30;;;27.50;53.20;;;;;;5051118;28;20040;-71
2022/05/10 03:56:30;;;;;;;0.00;0.00;;;27.50;54.50;;;;;;5046400;28;20140;-70
2022/05/10 03:58:57;;;;;;;0.98;0.05;;;27.80;53.40;;;;;;5049360;28;20033;-70
2022/05/10 04:01:23;;;;;;;4.38;0.35;;;27.70;54.40;;;;;;5044704;28;20118;-70
2022/05/10 04:03:49;;;;;;;1.50;0.38;;;28.00;55.10;;;;;;5045237;28;20481;-70
2022/05/10 04:06:16;;;;;;;3.30;1.38;;;28.10;54.80;;;;;;5043250;28;20033;-70
2022/05/10 04:08:43;;;;;;;1.27;1.17;;;28.10;54.00;;;;;;5045685;28;20029;-69
2022/05/10 04:11:10;;;;;;;4.38;0.95;;;27.90;54.60;;;;;;5049306;28;20104;-69
2022/05/10 04:13:38;;;;;;;0.22;0.22;;;28.20;54.90;;;;;;5051861;28;20032;-70
2022/05/10 04:16:05;;;;;;;4.57;2.83;;;28.20;55.10;;;;;;5045839;28;20063;-69
2022/05/10 04:18:31;;;;;;;2.75;0.85;;;28.00;55.60;;;;;;5044474;28;20024;-70
2022/05/10 04:20:59;;;;;;;3.55;0.90;;;28.00;54.50;;;;;;5034738;28;20057;-70
2022/05/10 04:23:26;;;;;;;0.20;0.20;;;28.10;53.60;;;;;;5043556;28;20222;-70
2022/05/10 04:25:52;;;;;;;0.00;0.00;;;27.90;53.30;;;;;;5043830;28;20390;-70
2022/05/10 04:28:18;;;;;;;2.92;2.72;;;27.90;52.60;;;;;;5047102;28;20159;-70
2022/05/10 04:30:44;;;;;;;1.60;1.35;;;28.40;50.60;;;;;;5051173;28;20038;-71
2022/05/10 04:33:11;;;;;;;0.00;0.00;;;28.60;51.50;;;;;;5047208;28;20029;-69
2022/05/10 04:35:37;;;;;;;0.30;0.30;;;28.50;54.10;;;;;;5046973;28;20031;-69
2022/05/10 04:38:04;;;;;;;0.00;0.00;;;28.70;54.40;;;;;;5047846;28;20397;-69
2022/05/10 04:43:16;;;;;;;0.30;0.20;;;28.60;56.10;;;;;;5047825;28;20029;-69
2022/05/10 04:45:42;;;;;;;0.90;0.90;;;28.50;57.40;;;;;;5054180;28;20036;-69
2022/05/10 04:48:08;;;;;;;0.00;0.00;;;28.20;59.40;;;;;;5047218;28;20424;-71
2022/05/10 04:50:34;;;;;;;15.43;5.57;;;28.00;58.60;;;;;;5049731;28;20061;-69
2022/05/10 04:53:00;;;;;;;0.55;0.55;;;28.20;59.00;;;;;;5047887;28;20029;-70
2022/05/10 04:55:26;;;;;;;6.43;1.30;;;28.30;57.60;;;;;;5044328;28;20045;-71
2022/05/10 04:57:52;;;;;;;0.65;0.57;;;28.20;55.90;;;;;;5039929;28;20100;-72
2022/05/10 05:00:19;;;;;;;0.47;0.15;;;28.10;55.10;;;;;;5039310;28;20100;-73
2022/05/10 05:03:29;;;;;;;0.00;0.00;;;28.30;55.20;;;;;;5046386;28;20017;-70
2022/05/10 05:05:54;;;;;;;0.10;0.10;;;28.60;56.10;;;;;;5044177;28;20037;-70
2022/05/10 05:08:20;;;;;;;0.00;0.00;;;28.80;56.60;;;;;;5047049;28;20028;-69
2022/05/10 05:10:46;;;;;;;0.85;0.57;;;29.00;56.60;;;;;;5048322;28;20033;-68
2022/05/10 05:13:14;;;;;;;0.10;0.10;;;29.00;55.60;;;;;;5050232;28;20132;-69
2022/05/10 05:15:40;;;;;;;0.05;0.05;;;28.70;57.70;;;;;;5043493;28;20033;-69
2022/05/10 05:18:08;;;;;;;0.00;0.00;;;28.80;57.80;;;;;;5046994;28;20029;-69
2022/05/10 05:20:51;;;;;;;0.95;0.95;;;29.00;58.80;;;;;;5045859;28;20023;-68
2022/05/10 05:23:20;;;;;;;0.65;0.65;;;29.10;59.30;;;;;;5047497;28;20063;-70
2022/05/10 05:25:47;;;;;;;1.30;0.57;;;29.10;58.60;;;;;;5045158;28;20068;-71
2022/05/10 05:28:13;;;;;;;0.00;0.00;;;29.10;61.00;;;;;;5052246;28;20071;-68
2022/05/10 05:30:41;;;;;;;0.55;0.55;;;29.10;63.40;;;;;;5051496;28;20032;-69
2022/05/10 05:33:07;;;;;;;0.35;0.10;;;29.00;64.80;;;;;;5051165;28;20024;-69
2022/05/10 05:35:34;;;;;;;0.93;0.93;;;29.00;65.90;;;;;;5044908;28;20017;-69
2022/05/10 05:38:00;;;;;;;0.73;0.73;;;28.80;67.30;;;;;;5047070;28;20028;-68
2022/05/10 05:40:26;;;;;;;3.08;2.80;;;28.80;68.20;;;;;;5043673;28;20024;-69
2022/05/10 05:42:54;;;;;;;0.28;0.15;;;28.70;68.70;;;;;;5045583;28;20075;-70
2022/05/10 05:45:23;;;;;;;0.68;0.68;;;28.50;70.30;;;;;;5048928;28;20542;-70
2022/05/10 05:47:50;;;;;;;0.90;0.73;;;28.70;68.40;;;;;;5046054;28;20495;-71
2022/05/10 05:50:22;;;;;;;0.85;0.57;;;28.90;66.80;;;;;;5045227;28;20041;-72
2022/05/10 05:52:52;;;;;;;0.63;0.63;;;29.10;65.80;;;;;;5044950;28;20063;-69
2022/05/10 05:55:19;;;;;;;38.63;3.10;;;28.90;66.00;;;;;;5041015;28;20046;-70
2022/05/10 05:57:46;;;;;;;1.05;0.55;;;28.80;66.80;;;;;;5039547;28;20427;-70
2022/05/10 06:00:16;;;;;;;22.83;2.90;;;28.50;70.00;;;;;;5047355;28;20057;-73
2022/05/10 06:02:42;;;;;;;1.25;0.93;;;28.10;73.30;;;;;;5046019;28;20105;-71
2022/05/10 06:05:09;;;;;;;4.68;1.05;;;27.80;78.40;;;;;;5041573;28;20058;-71
2022/05/10 06:07:35;;;;;;;8.68;1.58;;;27.70;82.00;;;;;;5042042;28;20025;-71
2022/05/10 06:10:01;;;;;;;9.82;3.67;;;27.50;86.70;;;;;;5045544;28;20032;-71
2022/05/10 06:12:27;;;;;;;1.90;1.75;;;27.40;89.40;;;;;;5044620;28;20056;-71
2022/05/10 06:14:53;;;;;;;1.65;1.55;;;27.20;92.00;;;;;;5044101;28;20024;-71
2022/05/10 06:17:19;;;;;;;3.03;2.10;;;26.90;93.70;;;;;;5043013;28;20013;-70
2022/05/10 06:19:46;;;;;;;0.20;0.20;;;26.70;97.20;;;;;;5047391;28;20025;-71
2022/05/10 06:22:13;;;;;;;2.50;0.68;;;26.60;99.90;;;;;;5046626;28;20095;-71
2022/05/10 06:24:40;;;;;;;7.18;1.70;;;26.80;99.90;;;;;;5045087;28;20021;-71
2022/05/10 06:27:10;;;;;;;2.25;0.98;;;26.80;97.80;;;;;;5041864;28;20067;-71
2022/05/10 06:29:39;;;;;;;1.85;1.75;;;26.90;96.00;;;;;;5043837;28;20139;-72
2022/05/10 06:32:06;;;;;;;1.17;0.88;;;27.00;94.00;;;;;;5044559;28;20047;-72
2022/05/10 06:34:32;;;;;;;14.18;2.25;;;26.60;94.50;;;;;;5039707;28;20465;-73
2022/05/10 06:36:58;;;;;;;0.25;0.25;;;26.10;96.00;;;;;;5041532;28;20024;-72
2022/05/10 06:39:24;;;;;;;5.30;1.08;;;26.10;96.00;;;;;;5040913;28;20033;-71
2022/05/10 06:41:50;;;;;;;0.47;0.30;;;26.00;95.50;;;;;;5045871;28;20044;-72
2022/05/10 06:44:16;;;;;;;1.73;0.20;;;25.90;94.50;;;;;;5042570;28;20025;-70
2022/05/10 06:46:42;;;;;;;33.17;4.10;;;25.90;91.30;;;;;;5040714;28;20043;-72
2022/05/10 06:49:09;;;;;;;2.53;0.77;;;25.80;83.20;;;;;;5041807;28;20037;-71
2022/05/10 06:51:39;;;;;;;0.70;0.60;;;26.00;78.40;;;;;;5040828;28;20036;-71
2022/05/10 06:54:06;;;;;;;1.02;0.30;;;26.00;78.20;;;;;;5041677;28;20037;-72
2022/05/10 06:56:32;;;;;;;9.05;3.58;;;26.00;73.70;;;;;;5046446;28;20041;-72
2022/05/10 06:58:58;;;;;;;5.30;4.95;;;25.80;71.30;;;;;;5049731;28;20088;-72
2022/05/10 07:01:24;;;;;;;1.05;1.05;;;25.80;71.80;;;;;;5045994;28;20055;-71
2022/05/10 07:03:51;;;;;;;1.77;1.55;;;25.90;72.00;;;;;;5038770;28;20116;-72
2022/05/10 07:06:21;;;;;;;1.13;1.02;;;26.10;69.30;;;;;;5040766;28;20029;-71
2022/05/10 07:08:47;;;;;;;1.70;0.40;;;26.10;69.30;;;;;;5046806;28;20071;-72
2022/05/10 07:11:13;;;;;;;0.28;0.17;;;26.20;68.70;;;;;;5043243;28;21429;-71
2022/05/10 07:13:39;;;;;;;0.95;0.73;;;26.00;69.80;;;;;;5042225;28;20041;-71
2022/05/10 07:16:05;;;;;;;6.78;2.72;;;26.00;68.40;;;;;;5048708;28;20103;-70
2022/05/10 07:18:31;;;;;;;4.38;0.55;;;25.80;68.50;;;;;;5038128;28;20587;-72
2022/05/10 07:20:57;;;;;;;0.43;0.40;;;25.40;68.00;;;;;;5055178;28;20028;-72
2022/05/10 07:23:27;;;;;;;2.47;1.52;;;25.40;68.90;;;;;;5046033;28;20025;-72
2022/05/10 07:25:55;;;;;;;1.45;0.30;;;25.40;68.60;;;;;;5045516;28;20074;-72
2022/05/10 07:28:21;;;;;;;2.90;1.75;;;25.70;69.10;;;;;;5047897;28;20043;-71
2022/05/10 07:30:47;;;;;;;5.38;0.88;;;25.70;67.40;;;;;;5042844;28;20032;-72
2022/05/10 07:33:18;;;;;;;0.52;0.38;;;25.70;66.00;;;;;;5048772;28;20029;-72
2022/05/10 07:38:29;;;;;;;0.03;0.03;;;25.50;67.00;;;;;;5049875;28;20024;-71
2022/05/10 07:40:55;;;;;;;0.60;0.20;;;25.60;68.20;;;;;;5050771;28;20037;-72
2022/05/10 07:43:21;;;;;;;6.68;2.40;;;25.50;68.00;;;;;;5045275;28;20075;-71
2022/05/10 07:45:51;;;;;;;0.00;0.00;;;25.70;68.10;;;;;;5039695;28;20161;-71
2022/05/10 07:48:17;;;;;;;4.82;1.30;;;26.00;66.90;;;;;;5053497;28;20032;-71
2022/05/10 07:50:44;;;;;;;0.93;0.93;;;26.40;66.20;;;;;;5054588;28;20045;-71
2022/05/10 07:53:11;;;;;;;0.15;0.15;;;26.40;65.90;;;;;;5049241;28;20021;-72
2022/05/10 07:55:38;;;;;;;0.30;0.20;;;26.50;66.00;;;;;;5046450;28;20033;-72
2022/05/10 07:58:05;;;;;;;1.17;0.10;;;26.50;65.10;;;;;;5058873;28;21325;-71
2022/05/10 08:00:36;;;;;;;0.30;0.30;;;26.40;65.10;;;;;;5034613;28;20766;-71
2022/05/10 08:03:16;;;;;;;0.00;0.00;;;26.50;65.20;;;;;;5040375;28;20091;-72
2022/05/10 08:05:42;;;;;;;4.53;1.13;;;26.60;64.90;;;;;;5049147;28;20568;-72
2022/05/10 08:08:09;;;;;;;1.35;0.57;;;26.30;64.90;;;;;;5047433;28;20028;-72
2022/05/10 08:10:36;;;;;;;1.05;0.75;;;26.30;66.60;;;;;;5035733;28;20059;-72
2022/05/10 08:13:03;;;;;;;3.83;0.88;;;26.30;66.30;;;;;;5044458;28;20044;-71
2022/05/10 08:15:30;;;;;;;2.13;0.85;;;26.10;67.50;;;;;;5046297;28;20037;-72
2022/05/10 08:17:56;;;;;;;0.20;0.10;;;25.40;69.60;;;;;;5044787;28;20030;-74
2022/05/10 08:20:22;;;;;;;0.13;0.13;;;25.00;71.60;;;;;;5047492;28;20469;-72
2022/05/10 08:22:48;;;;;;;0.00;0.00;;;25.00;72.50;;;;;;5048758;28;20036;-73
2022/05/10 08:25:14;;;;;;;2.00;0.80;;;25.30;71.80;;;;;;5049553;28;20040;-73
2022/05/10 08:27:43;;;;;;;0.32;0.32;;;25.10;71.90;;;;;;5058113;28;20025;-73
2022/05/10 08:30:10;;;;;;;44.72;3.42;;;25.20;71.60;;;;;;5043369;28;20024;-71
2022/05/10 08:32:39;;;;;;;0.85;0.57;;;25.20;71.70;;;;;;5051452;28;20024;-72
2022/05/10 08:35:07;;;;;;;0.05;0.05;;;25.10;70.90;;;;;;5043483;28;20024;-72
2022/05/10 08:37:36;;;;;;;11.32;0.52;;;24.90;72.60;;;;;;5046862;28;20025;-71
2022/05/10 08:40:05;;;;;;;0.00;0.00;;;24.90;73.30;;;;;;5045633;28;20084;-71
2022/05/10 08:42:33;;;;;;;2.72;0.10;;;24.70;73.60;;;;;;5045638;28;20028;-71
2022/05/10 08:45:07;;;;;;;0.00;0.00;;;24.40;74.50;;;;;;5045936;28;20053;-73
2022/05/10 08:47:35;;;;;;;0.13;0.13;;;24.50;76.00;;;;;;5046680;28;20056;-73
2022/05/10 08:50:07;;;;;;;0.00;0.00;;;24.40;77.70;;;;;;5047585;28;20464;-71
2022/05/10 08:52:43;;;;;;;1.25;1.25;;;24.40;78.70;;;;;;5037175;28;20100;-71
2022/05/10 08:55:10;;;;;;;0.85;0.50;;;24.40;80.40;;;;;;5045371;28;20545;-71
2022/05/10 08:57:50;;;;;;;0.00;0.00;;;23.80;84.20;;;;;;5034860;28;20534;-72
2022/05/10 09:00:32;;;;;;;0.35;0.32;;;24.00;84.60;;;;;;5044221;28;20025;-73
2022/05/10 09:03:00;;;;;;;1.85;0.30;;;24.10;84.30;;;;;;5052684;28;20362;-71
2022/05/10 09:05:29;;;;;;;0.70;0.57;;;23.90;83.60;;;;;;5050529;28;20448;-73
2022/05/10 09:08:21;;;;;;;0.00;0.00;;;23.80;84.30;;;;;;5038026;28;20029;-71
2022/05/10 09:10:50;;;;;;;0.00;0.00;;;24.00;85.10;;;;;;5038871;28;20158;-72
2022/05/10 09:13:18;;;;;;;0.90;0.90;;;24.00;85.10;;;;;;5043641;28;20029;-70
2022/05/10 09:15:55;;;;;;;0.22;0.22;;;23.90;85.50;;;;;;5044057;28;20060;-72
2022/05/10 09:18:31;;;;;;;0.10;0.10;;;24.10;85.60;;;;;;5046171;28;20104;-72
2022/05/10 09:21:33;;;;;;;1.48;0.75;;;24.20;85.70;;;;;;5040818;28;20029;-70
2022/05/10 09:24:31;;;;;;;0.63;0.55;;;24.20;86.70;;;;;;5043705;28;20037;-71
2022/05/10 09:27:06;;;;;;;0.00;0.00;;;24.10;86.40;;;;;;5042752;28;20041;-71
2022/05/10 09:29:47;;;;;;;27.85;4.85;;;23.60;91.30;;;;;;5048846;28;20057;-71
2022/05/10 09:35:27;;;;;;;0.00;0.00;;;24.20;89.60;;;;;;5043446;28;20113;-71
2022/05/10 09:38:08;;;;;;;0.00;0.00;;;23.80;90.40;;;;;;5045908;28;20041;-70
2022/05/10 09:40:36;;;;;;;0.38;0.38;;;23.70;92.70;;;;;;5065902;28;20112;-70
2022/05/10 09:43:25;;;;;;;0.00;0.00;;;23.60;94.10;;;;;;5047895;28;20033;-71
2022/05/10 09:46:07;;;;;;;0.10;0.10;;;23.70;95.00;;;;;;5038439;28;20022;-69
2022/05/10 09:48:36;;;;;;;0.00;0.00;;;24.00;95.10;;;;;;5046098;28;20045;-70
2022/05/10 09:51:22;;;;;;;0.28;0.28;;;24.00;95.10;;;;;;5042993;28;20041;-70
2022/05/10 09:53:48;;;;;;;0.00;0.00;;;23.90;95.60;;;;;;5039742;28;20028;-70
2022/05/10 09:56:39;;;;;;;0.30;0.10;;;23.80;96.40;;;;;;5048378;28;20132;-70
2022/05/10 09:59:25;;;;;;;0.00;0.00;;;23.60;98.70;;;;;;5058637;28;20053;-70
2022/05/10 10:01:58;;;;;;;0.00;0.00;;;23.50;99.20;;;;;;5042193;28;20047;-71
2022/05/10 10:04:31;;;;;;;0.00;0.00;;;23.20;99.90;;;;;;5039679;28;20021;-70
2022/05/10 10:07:13;;;;;;;0.52;0.45;;;23.20;99.90;;;;;;5041742;28;20067;-71
2022/05/10 10:09:42;;;;;;;0.00;0.00;;;23.20;99.90;;;;;;5048409;28;20025;-71
2022/05/10 10:12:27;;;;;;;0.20;0.10;;;22.80;99.90;;;;;;5042125;28;20029;-70
2022/05/10 10:14:54;;;;;;;0.00;0.00;;;22.90;99.90;;;;;;5047705;28;20032;-70
2022/05/10 10:17:28;;;;;;;0.00;0.00;;;23.00;99.90;;;;;;5046036;28;20108;-69
2022/05/10 10:20:30;;;;;;;0.00;0.00;;;23.20;99.90;;;;;;5046409;28;20021;-70
2022/05/10 10:23:01;;;;;;;0.00;0.00;;;23.20;99.90;;;;;;5042524;28;20033;-70
2022/05/10 10:25:28;;;;;;;1.48;1.38;;;23.20;99.90;;;;;;5045344;28;20121;-69
2022/05/10 10:28:16;;;;;;;0.00;0.00;;;23.20;99.90;;;;;;5043563;28;20108;-71
2022/05/10 10:30:55;;;;;;;0.20;0.20;;;23.10;99.90;;;;;;5046518;28;20103;-70
2022/05/10 10:33:36;;;;;;;0.00;0.00;;;23.10;99.90;;;;;;5039851;28;20025;-69
2022/05/10 10:36:16;;;;;;;0.13;0.13;;;23.20;99.90;;;;;;5040841;28;20392;-69
2022/05/10 10:38:51;;;;;;;58.55;11.77;;;23.10;99.90;;;;;;5038262;28;20086;-70
2022/05/10 10:41:26;;;;;;;0.00;0.00;;;23.00;99.90;;;;;;5041947;28;20017;-67
2022/05/10 10:44:10;;;;;;;0.00;0.00;;;22.70;99.90;;;;;;5044435;28;20021;-70
2022/05/10 10:46:59;;;;;;;0.00;0.00;;;22.80;99.90;;;;;;5044875;28;20473;-71
2022/05/10 10:49:37;;;;;;;1.73;1.65;;;22.80;99.90;;;;;;5046007;28;20033;-69
2022/05/10 10:52:03;;;;;;;0.10;0.10;;;22.80;99.90;;;;;;5047460;28;20381;-69
2022/05/10 10:54:31;;;;;;;0.00;0.00;;;22.90;99.90;;;;;;5037604;28;20113;-70
2022/05/10 10:57:27;;;;;;;0.00;0.00;;;22.90;99.90;;;;;;5046477;28;20508;-70
2022/05/10 11:00:46;;;;;;;12.40;0.85;;;22.70;99.90;;;;;;5039941;28;20513;-70
2022/05/10 11:03:40;;;;;;;0.00;0.00;;;22.80;99.90;;;;;;5048018;28;20038;-69
2022/05/10 11:06:27;;;;;;;0.00;0.00;;;22.90;99.90;;;;;;5038624;28;20059;-72
2022/05/10 11:09:09;;;;;;;0.00;0.00;;;22.70;99.90;;;;;;5050133;28;20053;-71
2022/05/10 11:11:51;;;;;;;0.00;0.00;;;22.60;99.90;;;;;;5041498;28;20029;-73
2022/05/10 11:14:28;;;;;;;0.10;0.00;;;22.40;99.90;;;;;;5038355;28;20022;-70
2022/05/10 11:17:13;;;;;;;0.10;0.10;;;22.00;99.90;;;;;;5048282;28;20124;-70
2022/05/10 11:20:16;;;;;;;0.00;0.00;;;21.90;99.90;;;;;;5044553;28;20025;-71
2022/05/10 11:23:03;;;;;;;0.00;0.00;;;21.70;99.90;;;;;;5044702;28;20021;-73
2022/05/10 11:25:44;;;;;;;0.00;0.00;;;21.30;99.90;;;;;;5043454;28;20029;-71
2022/05/10 11:28:28;;;;;;;2.92;2.25;;;21.40;99.90;;;;;;5048194;28;20040;-72
2022/05/10 11:31:12;;;;;;;0.00;0.00;;;21.40;99.90;;;;;;5050707;28;20029;-71
2022/05/10 11:33:50;;;;;;;0.00;0.00;;;21.40;99.90;;;;;;5044372;28;20461;-71
2022/05/10 11:36:25;;;;;;;1.13;1.13;;;21.30;99.90;;;;;;5043854;28;20059;-72
2022/05/10 11:38:51;;;;;;;0.00;0.00;;;21.20;99.90;;;;;;5050187;28;20022;-70
2022/05/10 11:42:03;;;;;;;0.00;0.00;;;21.20;99.90;;;;;;5045750;28;20385;-73
2022/05/10 11:44:57;;;;;;;0.00;0.00;;;21.20;99.90;;;;;;5047269;28;20034;-70
2022/05/10 11:47:46;;;;;;;0.00;0.00;;;21.20;99.90;;;;;;5046561;28;20026;-72
2022/05/10 11:50:27;;;;;;;0.00;0.00;;;21.10;99.90;;;;;;5048638;28;20482;-70
2022/05/10 11:53:38;;;;;;;0.00;0.00;;;20.90;99.90;;;;;;5045307;28;20029;-71
2022/05/10 11:56:07;;;;;;;0.00;0.00;;;21.10;99.90;;;;;;5033994;28;20037;-70
2022/05/10 11:58:35;;;;;;;0.00;0.00;;;20.90;99.90;;;;;;5045571;28;20021;-70
2022/05/10 12:01:11;;;;;;;0.10;0.10;;;20.90;99.90;;;;;;5044458;28;20017;-70
2022/05/10 12:03:41;;;;;;;0.00;0.00;;;20.80;99.90;;;;;;5052334;28;20017;-73
2022/05/10 12:06:22;;;;;;;1.40;1.33;;;20.30;99.90;;;;;;5054741;28;20056;-71
2022/05/10 12:08:49;;;;;;;0.00;0.00;;;20.00;99.90;;;;;;5048758;28;20179;-71
2022/05/10 12:11:28;;;;;;;0.10;0.10;;;20.00;99.90;;;;;;5045316;28;20489;-71
2022/05/10 12:22:19;;;;;;;0.00;0.00;;;19.80;99.90;;;;;;5048550;28;20465;-71
2022/05/10 12:24:48;;;;;;;0.00;0.00;;;19.70;99.90;;;;;;5042750;28;20083;-70
2022/05/10 12:27:15;;;;;;;1.65;0.75;;;19.70;99.90;;;;;;5041186;28;20025;-71
2022/05/10 12:29:41;;;;;;;0.15;0.13;;;19.70;99.90;;;;;;5045586;28;20029;-71
2022/05/10 12:32:26;;;;;;;0.30;0.30;;;19.60;99.90;;;;;;5042260;28;20367;-69
2022/05/10 12:35:04;;;;;;;1.20;0.73;;;19.00;99.90;;;;;;5050767;28;20028;-71
2022/05/10 12:37:38;;;;;;;0.00;0.00;;;19.20;99.90;;;;;;5049027;28;20064;-73
2022/05/10 12:40:10;;;;;;;0.00;0.00;;;19.50;99.90;;;;;;5052616;28;20027;-70
2022/05/10 12:42:37;;;;;;;0.00;0.00;;;19.50;99.90;;;;;;5044331;28;20059;-71
2022/05/10 12:45:21;;;;;;;0.25;0.25;;;19.50;99.90;;;;;;5048019;28;20032;-71
2022/05/10 12:48:05;;;;;;;0.00;0.00;;;19.50;99.90;;;;;;5049622;28;20036;-70
2022/05/10 12:50:38;;;;;;;0.05;0.05;;;19.40;99.90;;;;;;5050622;28;20025;-72
2022/05/10 12:53:37;;;;;;;0.00;0.00;;;19.50;99.90;;;;;;5052188;28;20104;-72
2022/05/10 12:56:16;;;;;;;0.00;0.00;;;19.50;99.90;;;;;;5051993;28;20162;-72
2022/05/10 12:58:47;;;;;;;0.00;0.00;;;19.60;99.90;;;;;;5052438;28;20028;-72
2022/05/10 13:01:16;;;;;;;0.05;0.05;;;19.60;99.90;;;;;;5050901;28;20020;-71
2022/05/10 13:03:47;;;;;;;0.00;0.00;;;19.60;99.90;;;;;;5052454;28;20075;-71
2022/05/10 13:06:22;;;;;;;0.00;0.00;;;19.50;99.90;;;;;;5052722;28;20032;-71
2022/05/10 13:09:08;;;;;;;0.00;0.00;;;19.60;99.90;;;;;;5053854;28;20040;-72
2022/05/10 13:11:56;;;;;;;1.77;1.20;;;19.50;99.90;;;;;;5053152;28;20103;-71
2022/05/10 13:14:23;;;;;;;0.00;0.00;;;19.50;99.90;;;;;;5052704;28;20031;-70
2022/05/10 13:16:52;;;;;;;0.00;0.00;;;19.40;99.90;;;;;;5052861;28;20025;-71
2022/05/10 13:19:21;;;;;;;0.00;0.00;;;19.30;99.90;;;;;;5049917;28;20074;-71
2022/05/10 13:21:48;;;;;;;0.00;0.00;;;19.30;99.90;;;;;;5047556;28;20489;-70
2022/05/10 13:24:20;;;;;;;0.00;0.00;;;19.10;99.90;;;;;;5048044;28;20029;-71
2022/05/10 13:27:03;;;;;;;0.10;0.10;;;18.90;99.90;;;;;;5053012;28;20021;-71
2022/05/10 13:29:57;;;;;;;0.45;0.38;;;18.80;99.90;;;;;;5052620;28;20028;-73
2022/05/10 13:32:29;;;;;;;0.00;0.00;;;18.60;99.90;;;;;;5044201;28;20041;-71
2022/05/10 13:35:04;;;;;;;0.00;0.00;;;18.50;99.90;;;;;;5071893;28;20036;-71
2022/05/10 13:37:33;;;;;;;0.00;0.00;;;18.20;99.90;;;;;;5050646;28;20118;-71